< < Back
Terminal Aerodrome Forecast


Current Version              Previous Versions:   1  2  3  4  5  6  7  8  9  

Terminal Aerodrome Forecast

417
FTUS42 KCHS 030809 AAA
TAFSAV
TAF AMD
KSAV 030809Z 0308/0406 10004KT 3SM BR OVC003
     FM031400 VRB03KT P6SM SCT006 BKN010
     FM031800 16009KT P6SM SCT025 BKN050
     FM040000 18006KT 5SM BR SCT005=

Latest METAR

422
SAUS80 KWBC 031500 RRA
MTRSAV
METAR KSAV 031453Z 11004KT 1SM R10/P6000FT BR OVC002 14/14 A3028 RMK AO2
SLP252 T01440139 51014


USA.gov is the U.S. government's official web portal to all federal, state and local government web resources and services.